• Join FlightAware (Why Join?)
  • Login
  • US Flag 
03:11PM EDT


 

Airport Tracker/Info


-or-


 

Live Flight TrackerFlight Track Log ✈ FDX542 ✈ 20-Apr-2012 ✈ KICT - KGTF

Flight Track Log - Related Links

Times and Time Zones

All times are in EDT time to prevent confusion due to time zone crossing. See the FDX542 flight status page for this flight to view local times or setup timezone preferences in your user account.

Time Position Orientation Groundspeed Altitude Reporting Facility
EDT Latitude Longitude Course Direction KTS MPH feet Rate Location/Type
06:42PM 37.6664 -97.4392 288° West 155 178 2,800  Level Kansas City Center
06:44PM 37.6989 -97.5664 278° West 234 269 7,100 2,640 Climbing Kansas City Center
06:45PM 37.7089 -97.6614 282° West 257 296 10,400 2,400 Climbing Kansas City Center
06:46PM 37.7269 -97.7672 307° West 286 329 12,000 1,680 Climbing Kansas City Center
06:47PM 37.7886 -97.8722 309° West 317 365 13,800 1,980 Climbing Kansas City Center
06:48PM 37.8464 -97.9617 310° West 359 413 16,000 2,760 Climbing Kansas City Center
06:49PM 37.9222 -98.0783 310° West 390 449 19,300 2,580 Climbing Kansas City Center
06:51PM 38.0617 -98.2933 309° West 390 449 23,700 2,100 Climbing Kansas City Center
06:52PM 38.1372 -98.4108 309° West 410 472 25,700 2,100 Climbing Kansas City Center
06:53PM 38.2125 -98.5311 316° Northwest 421 484 27,900 2,160 Climbing Kansas City Center
06:54PM 38.2964 -98.6361 319° Northwest 421 484 30,100 2,280 Climbing Kansas City Center
06:55PM 38.3828 -98.7336 319° Northwest 421 484 32,600 2,040 Climbing Kansas City Center
06:56PM 38.4650 -98.8258 319° Northwest 408 470 34,300 1,200 Climbing Kansas City Center
06:57PM 38.5511 -98.9211 319° Northwest 403 464 35,000 420 Climbing Kansas City Center
06:58PM 38.6333 -99.0111 318° Northwest 398 458 35,200 900 Climbing Kansas City Center
06:59PM 38.7111 -99.1011 318° Northwest 393 452 36,900 960 Climbing Kansas City Center
07:01PM 38.8561 -99.2700 318° Northwest 355 409 38,000 360 Climbing Denver Center
07:02PM 38.9306 -99.3556 317° Northwest 375 432 38,000  Level Denver Center
07:03PM 39.0183 -99.4592 319° Northwest 382 440 38,000  Level Denver Center
07:04PM 39.0989 -99.5500 319° Northwest 391 450 38,000  Level Denver Center
07:05PM 39.1706 -99.6314 320° Northwest 391 450 38,000  Level Denver Center
07:06PM 39.2644 -99.7347 309° West 391 450 38,000  Level Denver Center
07:07PM 39.3264 -99.8333 309° West 391 450 38,000  Level Denver Center
07:08PM 39.3953 -99.9425 312° West 396 456 38,000  Level Denver Center
07:09PM 39.4747 -100.0561 318° Northwest 391 450 38,000  Level Denver Center
07:10PM 39.5531 -100.1483 317° Northwest 386 444 38,000  Level Denver Center
07:11PM 39.6222 -100.2311 318° Northwest 381 438 38,000  Level Denver Center
07:12PM 39.7022 -100.3236 318° Northwest 381 438 38,000  Level Denver Center
07:13PM 39.7914 -100.4267 317° Northwest 381 438 38,000  Level Denver Center
07:14PM 39.8692 -100.5225 317° Northwest 381 438 38,000  Level Denver Center
07:15PM 39.9383 -100.6058 318° Northwest 381 438 38,000  Level Denver Center
07:16PM 40.0181 -100.6994 317° Northwest 376 433 38,000  Level Denver Center
07:17PM 40.1003 -100.8011 318° Northwest 371 427 38,000  Level Denver Center
07:18PM 40.1800 -100.8950 317° Northwest 371 427 38,000  Level Denver Center
07:19PM 40.2489 -100.9792 318° Northwest 371 427 38,000  Level Denver Center
07:20PM 40.3261 -101.0711 316° Northwest 371 427 38,000  Level Denver Center
07:21PM 40.4103 -101.1761 317° Northwest 371 427 38,000  Level Denver Center
07:22PM 40.4878 -101.2711 318° Northwest 371 427 38,000  Level Denver Center
07:23PM 40.5647 -101.3636 318° Northwest 371 427 38,000  Level Denver Center
07:24PM 40.6353 -101.4486 315° West 376 433 38,000  Level Denver Center
07:25PM 40.7192 -101.5575 318° Northwest 376 433 38,000  Level Denver Center
07:26PM 40.7983 -101.6531 317° Northwest 376 433 38,000  Level Denver Center
07:27PM 40.8753 -101.7492 317° Northwest 376 433 38,000  Level Denver Center
07:28PM 40.9456 -101.8350 317° Northwest 376 433 38,000  Level Denver Center
07:29PM 41.0311 -101.9419 317° Northwest 376 433 38,000  Level Denver Center
07:30PM 41.1081 -102.0386 316° Northwest 376 433 38,000  Level Denver Center
07:31PM 41.1847 -102.1383 317° Northwest 376 433 38,000  Level Denver Center
07:32PM 41.2525 -102.2222 316° Northwest 376 433 38,000  Level Denver Center
07:33PM 41.3356 -102.3303 316° Northwest 376 433 38,000  Level Denver Center
07:34PM 41.4100 -102.4253 317° Northwest 371 427 38,000  Level Denver Center
07:35PM 41.4861 -102.5206 317° Northwest 371 427 38,000  Level Denver Center
07:36PM 41.5536 -102.6053 316° Northwest 371 427 38,000  Level Denver Center
07:37PM 41.6342 -102.7089 317° Northwest 371 427 38,000  Level Denver Center
07:38PM 41.7103 -102.8047 317° Northwest 371 427 38,000  Level Denver Center
07:39PM 41.7842 -102.8981 316° Northwest 371 427 38,000  Level Denver Center
07:40PM 41.8492 -102.9836 317° Northwest 366 421 38,000  Level Denver Center
07:41PM 41.9336 -103.0908 315° West 372 428 38,000  Level Denver Center
07:42PM 42.0053 -103.1875 315° West 367 422 38,000  Level Denver Center
07:43PM 42.0767 -103.2847 316° Northwest 367 422 38,000  Level Denver Center
07:44PM 42.1439 -103.3711 317° Northwest 374 430 38,000  Level Denver Center
07:45PM 42.2256 -103.4736 315° West 369 425 38,000  Level Denver Center
07:46PM 42.2989 -103.5711 315° West 369 425 38,000  Level Denver Center
07:47PM 42.3658 -103.6608 315° West 369 425 38,000  Level Denver Center
07:48PM 42.4389 -103.7589 316° Northwest 369 425 38,100  Climbing Denver Center
07:49PM 42.5228 -103.8681 315° West 369 425 38,000 -60 Descending Denver Center
07:50PM 42.5936 -103.9639 315° West 369 425 38,000  Level Denver Center
07:51PM 42.6603 -104.0544 316° Northwest 369 425 38,000  Level Denver Center
07:52PM 42.7414 -104.1617 315° West 369 425 38,000  Level Denver Center
07:53PM 42.8142 -104.2608 315° West 369 425 38,000  Level Denver Center
07:54PM 42.8783 -104.3492 315° West 369 425 38,000  Level Denver Center
07:55PM 42.9511 -104.4489 315° West 369 425 38,000  Level Denver Center
07:56PM 43.0300 -104.5572 315° West 369 425 38,000  Level Denver Center
07:57PM 43.1022 -104.6572 315° West 369 425 38,000  Level Denver Center
07:58PM 43.1661 -104.7464 315° West 369 425 38,000  Level Denver Center
07:59PM 43.2447 -104.8556 315° West 369 425 38,000  Level Denver Center
08:00PM 43.3192 -104.9592 315° West 369 425 38,000  Level Denver Center
08:01PM 43.3847 -105.0489 314° West 369 425 38,000  Level Denver Center
08:02PM 43.4547 -105.1472 314° West 369 425 38,000  Level Denver Center
08:03PM 43.5331 -105.2603 315° West 369 425 38,000  Level Denver Center
08:04PM 43.6047 -105.3592 314° West 369 425 38,000  Level Denver Center
08:05PM 43.6681 -105.4497 315° West 369 425 38,000  Level Denver Center
08:06PM 43.7397 -105.5492 315° West 369 425 38,000  Level Denver Center
08:07PM 43.8175 -105.6572 315° West 364 419 38,000  Level Denver Center
08:08PM 43.8869 -105.7542 313° West 369 425 38,000  Level Denver Center
08:10PM 43.9833 -105.8956 314° West 363 418 38,000  Level Salt Lake Center
08:11PM 44.0608 -106.0083 314° West 362 417 38,000  Level Salt Lake Center
08:12PM 44.1264 -106.1044 314° West 360 414 38,000  Level Salt Lake Center
08:13PM 44.2050 -106.2186 314° West 359 413 38,100  Climbing Salt Lake Center
08:14PM 44.2706 -106.3139 313° West 358 412 38,000 -60 Descending Salt Lake Center
08:15PM 44.3356 -106.4097 313° West 356 410 38,000  Level Salt Lake Center
08:16PM 44.4106 -106.5217 313° West 355 409 38,000  Level Salt Lake Center
08:17PM 44.4756 -106.6181 314° West 356 410 38,000  Level Salt Lake Center
08:18PM 44.5514 -106.7292 313° West 355 409 38,000  Level Salt Lake Center
08:19PM 44.6167 -106.8267 314° West 357 411 38,000  Level Salt Lake Center
08:20PM 44.6947 -106.9397 314° West 361 415 38,000  Level Salt Lake Center
08:21PM 44.7617 -107.0378 313° West 363 418 38,000  Level Salt Lake Center
08:22PM 44.8397 -107.1550 313° West 368 423 38,000 -660 Level Salt Lake Center
08:23PM 44.9064 -107.2550 314° West 367 422 36,700 -1,020 Descending Salt Lake Center
08:24PM 44.9853 -107.3711 314° West 368 423 36,000 -360 Descending Salt Lake Center
08:25PM 45.0525 -107.4700 313° West 367 422 36,000  Level Salt Lake Center
08:26PM 45.1306 -107.5875 313° West 368 423 36,000  Level Salt Lake Center
08:27PM 45.1967 -107.6886 313° West 368 423 36,000  Level Salt Lake Center
08:28PM 45.2733 -107.8053 314° West 365 420 36,000  Level Salt Lake Center
08:29PM 45.3397 -107.9047 313° West 364 419 36,000  Level Salt Lake Center
08:30PM 45.4164 -108.0208 313° West 362 417 36,000  Level Salt Lake Center
08:31PM 45.4819 -108.1225 313° West 365 420 36,000  Level Salt Lake Center
08:32PM 45.5583 -108.2394 313° West 363 418 36,000  Level Salt Lake Center
08:33PM 45.6242 -108.3414 313° West 365 420 36,000  Level Salt Lake Center
08:34PM 45.7011 -108.4597 313° West 364 419 36,000  Level Salt Lake Center
08:35PM 45.7669 -108.5611 312° West 364 419 36,000  Level Salt Lake Center
08:36PM 45.8431 -108.6817 313° West 366 421 36,000  Level Salt Lake Center
08:37PM 45.9083 -108.7819 313° West 362 417 36,000 -300 Level Salt Lake Center
08:38PM 45.9842 -108.9006 312° West 361 415 35,400 -1,020 Descending Salt Lake Center
08:40PM 46.0492 -109.0031 313° West 362 417 33,900 -1,740 Descending Salt Lake Center
08:41PM 46.1286 -109.1278 312° West 376 433 31,900 -1,440 Descending Salt Lake Center
08:42PM 46.1972 -109.2361 312° West 381 438 31,000 -480 Descending Salt Lake Center
08:43PM 46.2764 -109.3619 312° West 380 437 31,000  Level Salt Lake Center
08:44PM 46.3436 -109.4697 312° West 378 435 31,000  Level Salt Lake Center
08:45PM 46.4114 -109.5786 311° West 380 437 31,000  Level Salt Lake Center
08:46PM 46.4883 -109.7081 311° West 380 437 31,000 -420 Level Salt Lake Center
08:47PM 46.5550 -109.8186 312° West 380 437 30,200 -1,080 Descending Salt Lake Center
08:48PM 46.6336 -109.9464 312° West 380 437 28,800 -1,800 Descending Salt Lake Center
08:49PM 46.6992 -110.0536 312° West 375 432 26,500 -2,280 Descending Salt Lake Center
08:50PM 46.7667 -110.1614 312° West 371 427 24,100 -2,280 Descending Salt Lake Center
08:51PM 46.8331 -110.2678 311° West 362 417 21,800 -2,520 Descending Salt Lake Center
08:52PM 46.9092 -110.3939 311° West 350 403 19,000 -2,460 Descending Salt Lake Center
08:53PM 46.9678 -110.4936 311° West 333 383 16,800 -2,040 Descending Salt Lake Center
08:54PM 47.0239 -110.5897 311° West 317 365 14,800 -1,380 Descending Salt Lake Center
08:55PM 47.0839 -110.6894 312° West 319 367 14,000 -1,080 Descending Salt Lake Center
08:56PM 47.1447 -110.7900 319° Northwest 326 375 12,600 -1,920 Descending Salt Lake Center
08:57PM 47.2117 -110.8764 322° Northwest 324 373 10,100 -1,320 Descending Salt Lake Center
08:58PM 47.2972 -110.9747 321° Northwest 324 373 9,900 -660 Descending Salt Lake Center
08:59PM 47.3536 -111.0419 321° Northwest 284 327 8,800 -1,440 Descending Salt Lake Center
09:00PM 47.4039 -111.1025 322° Northwest 249 287 7,000 -1,200 Descending Salt Lake Center
09:01PM 47.4469 -111.1528 328° Northwest 214 246 6,400 -480 Descending Salt Lake Center
09:02PM 47.4853 -111.1883 340° North 195 224 6,100 -540 Descending Salt Lake Center
09:03PM 47.5294 -111.2119 285° West 181 208 5,400 -540 Descending Salt Lake Center
09:04PM 47.5389 -111.2636 241° Southwest 143 165 5,000 -420 Descending Salt Lake Center
09:05PM 47.5228 -111.3061 223° Southwest 111 128 4,600 -540 Descending Salt Lake Center
09:06PM 47.4997 -111.3383 226° Southwest 112 129 4,000 -540 Descending Salt Lake Center
09:07PM 47.4800 -111.3683 226° Southwest 108 124 3,600 -420 Descending Salt Lake Center